Time;durP1;ratioP1;P1;durP2;ratioP2;P2;SDS_P1;SDS_P2;PMS_P1;PMS_P2;Temp;Humidity;BMP_temperature;BMP_pressure;BME280_temperature;BME280_humidity;BME280_pressure;Samples;Min_cycle;Max_cycle;Signal;HPM_P1;HPM_P2
2021/08/25 00:00:55;;;;;;;9.80;8.80;;;26.20;53.70;;;;;;4198886;28;20045;-57
2021/08/25 00:02:59;;;;;;;11.52;8.90;;;26.20;53.60;;;;;;4198758;28;20104;-57
2021/08/25 00:05:03;;;;;;;10.95;8.32;;;26.20;53.60;;;;;;4198122;28;20056;-56
2021/08/25 00:07:07;;;;;;;8.25;7.28;;;26.20;53.60;;;;;;4198883;28;20076;-55
2021/08/25 00:09:09;;;;;;;8.27;7.45;;;26.20;53.60;;;;;;4198811;28;20049;-55
2021/08/25 00:11:11;;;;;;;10.07;6.90;;;26.30;53.70;;;;;;4198484;28;20051;-57
2021/08/25 00:13:13;;;;;;;7.63;6.82;;;26.20;53.60;;;;;;4198854;28;20041;-56
2021/08/25 00:15:15;;;;;;;6.63;6.03;;;26.30;53.60;;;;;;4198539;28;20072;-57
2021/08/25 00:17:18;;;;;;;9.43;6.07;;;26.30;53.60;;;;;;4198532;28;20075;-57
2021/08/25 00:19:20;;;;;;;6.72;5.57;;;26.30;53.60;;;;;;4198267;28;20056;-57
2021/08/25 00:21:22;;;;;;;7.20;5.93;;;26.20;53.60;;;;;;4198583;28;20048;-56
2021/08/25 00:23:25;;;;;;;5.68;5.10;;;26.20;53.60;;;;;;4199171;28;20048;-52
2021/08/25 00:25:27;;;;;;;5.22;4.72;;;26.20;53.70;;;;;;4198538;28;20059;-55
2021/08/25 00:27:29;;;;;;;5.30;4.50;;;26.20;53.60;;;;;;4198029;28;20048;-53
2021/08/25 00:29:31;;;;;;;7.50;5.63;;;26.20;53.60;;;;;;4199270;28;20057;-47
2021/08/25 00:31:33;;;;;;;8.23;5.65;;;26.20;53.50;;;;;;4198566;28;20045;-44
2021/08/25 00:33:35;;;;;;;6.20;5.25;;;26.20;53.40;;;;;;4198460;28;20049;-42
2021/08/25 00:35:37;;;;;;;6.93;4.97;;;26.20;53.40;;;;;;4198505;28;20063;-50
2021/08/25 00:37:39;;;;;;;9.90;5.10;;;26.20;53.50;;;;;;4198320;28;20099;-51
2021/08/25 00:39:41;;;;;;;7.40;4.38;;;26.20;53.50;;;;;;4198273;28;20044;-50
2021/08/25 00:41:43;;;;;;;10.48;5.38;;;26.20;53.60;;;;;;4198375;28;20055;-49
2021/08/25 00:43:45;;;;;;;7.63;4.90;;;26.10;53.30;;;;;;4198398;28;20068;-49
2021/08/25 00:45:47;;;;;;;8.85;4.82;;;26.10;53.40;;;;;;4198207;28;20075;-47
2021/08/25 00:47:51;;;;;;;8.00;5.32;;;26.10;53.50;;;;;;4198190;28;20045;-49
2021/08/25 00:49:52;;;;;;;6.65;4.85;;;26.10;53.40;;;;;;4198092;28;20075;-47
2021/08/25 00:51:54;;;;;;;5.20;3.92;;;26.20;53.50;;;;;;4198928;28;20051;-48
2021/08/25 00:53:58;;;;;;;7.40;4.60;;;26.20;53.60;;;;;;4201709;28;20060;-47
2021/08/25 00:56:00;;;;;;;6.07;4.28;;;26.20;53.30;;;;;;4201842;28;20055;-45
2021/08/25 00:58:02;;;;;;;6.63;4.65;;;26.20;53.40;;;;;;4201634;28;20057;-45
2021/08/25 01:00:12;;;;;;;6.20;4.45;;;26.20;53.40;;;;;;4201542;28;20053;-43
2021/08/25 01:02:30;;;;;;;6.13;4.47;;;26.10;53.40;;;;;;4200629;28;20104;-43
2021/08/25 01:05:00;;;;;;;5.32;3.88;;;26.10;53.50;;;;;;4201480;28;20060;-43
2021/08/25 01:07:03;;;;;;;5.35;4.60;;;26.10;53.40;;;;;;4200536;28;20076;-42
2021/08/25 01:09:05;;;;;;;5.30;4.40;;;26.20;53.40;;;;;;4201363;28;20053;-44
2021/08/25 01:11:11;;;;;;;6.80;4.22;;;26.10;53.50;;;;;;4200406;28;20048;-46
2021/08/25 01:13:13;;;;;;;5.57;4.25;;;26.10;53.40;;;;;;4201483;28;20044;-42
2021/08/25 01:15:16;;;;;;;4.20;3.60;;;26.10;53.50;;;;;;4201515;28;20104;-43
2021/08/25 01:17:23;;;;;;;5.05;4.22;;;26.00;53.60;;;;;;4201353;28;20078;-42
2021/08/25 01:19:28;;;;;;;5.15;4.47;;;26.00;53.50;;;;;;4201204;28;20075;-43
2021/08/25 01:21:30;;;;;;;7.32;4.80;;;26.10;53.60;;;;;;4201249;28;20056;-45
2021/08/25 01:23:41;;;;;;;5.75;4.30;;;26.10;53.60;;;;;;4201273;28;20045;-44
2021/08/25 01:25:43;;;;;;;6.03;3.85;;;26.00;53.60;;;;;;4201211;28;20056;-49
2021/08/25 01:27:53;;;;;;;7.13;4.50;;;26.00;53.70;;;;;;4201087;28;20049;-46
2021/08/25 01:29:59;;;;;;;5.05;4.22;;;26.00;53.70;;;;;;4201033;28;20044;-48
2021/08/25 01:32:01;;;;;;;5.85;4.45;;;26.00;53.80;;;;;;4201151;28;20412;-47
2021/08/25 01:34:07;;;;;;;7.15;4.53;;;26.00;53.80;;;;;;4200855;28;20049;-46
2021/08/25 01:36:17;;;;;;;4.80;4.28;;;26.00;53.80;;;;;;4200988;28;20048;-45
2021/08/25 01:38:28;;;;;;;8.35;4.10;;;26.00;53.90;;;;;;4201100;28;20080;-46
2021/08/25 01:40:35;;;;;;;6.50;4.75;;;26.00;53.90;;;;;;4200895;28;20063;-45
2021/08/25 01:42:37;;;;;;;7.15;5.15;;;26.00;53.90;;;;;;4200913;28;20262;-46
2021/08/25 01:44:39;;;;;;;5.55;4.65;;;25.90;54.00;;;;;;4200996;28;20055;-44
2021/08/25 01:46:43;;;;;;;8.20;5.43;;;25.90;54.00;;;;;;4199898;28;20049;-47
2021/08/25 01:48:45;;;;;;;8.02;5.03;;;25.90;53.90;;;;;;4200661;28;20049;-48
2021/08/25 01:50:47;;;;;;;6.47;4.97;;;25.90;54.00;;;;;;4200638;28;20057;-46
2021/08/25 01:52:49;;;;;;;7.65;5.57;;;25.90;54.10;;;;;;4200698;28;20067;-46
2021/08/25 01:54:53;;;;;;;9.85;5.82;;;25.90;54.10;;;;;;4200033;28;20045;-48
2021/08/25 01:56:55;;;;;;;8.77;5.25;;;25.90;54.20;;;;;;4200599;28;20051;-45
2021/08/25 01:58:58;;;;;;;6.18;5.20;;;25.90;54.20;;;;;;4200355;28;20088;-47
2021/08/25 02:01:00;;;;;;;6.78;5.28;;;25.90;54.20;;;;;;4200508;28;20052;-50
2021/08/25 02:03:02;;;;;;;7.75;5.70;;;25.90;54.30;;;;;;4200301;28;20049;-53
2021/08/25 02:05:05;;;;;;;7.18;5.18;;;25.90;54.30;;;;;;4199862;28;20075;-50
2021/08/25 02:07:07;;;;;;;7.60;5.88;;;25.80;54.40;;;;;;4200555;28;20075;-49
2021/08/25 02:09:09;;;;;;;8.60;5.88;;;25.80;54.40;;;;;;4200556;28;20053;-48
2021/08/25 02:11:11;;;;;;;7.45;5.60;;;25.80;54.50;;;;;;4200354;28;20075;-50
2021/08/25 02:13:13;;;;;;;8.23;5.60;;;25.80;54.60;;;;;;4200297;28;20072;-50
2021/08/25 02:15:15;;;;;;;9.38;6.25;;;25.80;54.70;;;;;;4199430;28;20052;-50
2021/08/25 02:17:17;;;;;;;7.97;5.95;;;25.80;54.70;;;;;;4200259;28;20044;-52
2021/08/25 02:19:19;;;;;;;10.00;6.80;;;25.70;54.70;;;;;;4200198;28;20052;-46
2021/08/25 02:21:22;;;;;;;11.52;6.88;;;25.70;54.80;;;;;;4200232;28;20104;-46
2021/08/25 02:23:24;;;;;;;12.27;6.80;;;25.70;54.80;;;;;;4200176;28;20108;-48
2021/08/25 02:25:26;;;;;;;10.77;6.93;;;25.70;54.80;;;;;;4200155;28;20052;-51
2021/08/25 02:27:28;;;;;;;12.60;7.43;;;25.70;54.90;;;;;;4200145;28;20049;-46
2021/08/25 02:29:30;;;;;;;10.38;6.90;;;25.70;54.90;;;;;;4200224;28;20045;-47
2021/08/25 02:31:32;;;;;;;13.57;7.03;;;25.70;54.90;;;;;;4200166;28;20040;-50
2021/08/25 02:33:34;;;;;;;9.20;6.07;;;25.60;55.10;;;;;;4200026;28;20052;-47
2021/08/25 02:35:36;;;;;;;11.93;6.55;;;25.60;55.10;;;;;;4200005;28;20071;-48
2021/08/25 02:37:38;;;;;;;12.95;6.43;;;25.60;55.20;;;;;;4200032;28;20075;-49
2021/08/25 02:39:40;;;;;;;9.38;6.90;;;25.60;55.20;;;;;;4199969;28;20049;-50
2021/08/25 02:41:43;;;;;;;9.27;5.82;;;25.60;55.20;;;;;;4200090;28;20049;-49
2021/08/25 02:43:45;;;;;;;9.93;6.90;;;25.60;55.40;;;;;;4199803;28;20049;-47
2021/08/25 02:45:47;;;;;;;10.60;7.63;;;25.60;55.50;;;;;;4199767;28;20109;-46
2021/08/25 02:47:49;;;;;;;9.63;6.95;;;25.50;55.50;;;;;;4199749;28;20059;-51
2021/08/25 02:49:51;;;;;;;8.77;6.88;;;25.50;55.40;;;;;;4199742;28;20049;-52
2021/08/25 02:51:53;;;;;;;12.68;7.57;;;25.50;55.20;;;;;;4199781;28;20049;-49
2021/08/25 02:53:55;;;;;;;12.85;8.18;;;25.50;55.20;;;;;;4199786;28;20143;-53
2021/08/25 02:55:57;;;;;;;9.65;7.70;;;25.50;55.10;;;;;;4199695;28;20067;-51
2021/08/25 02:57:59;;;;;;;13.05;7.38;;;25.50;55.10;;;;;;4199628;28;20060;-52
2021/08/25 03:00:01;;;;;;;10.52;7.47;;;25.40;55.10;;;;;;4199662;28;20053;-49
2021/08/25 03:02:03;;;;;;;8.80;6.93;;;25.40;55.10;;;;;;4199686;28;20045;-50
2021/08/25 03:04:06;;;;;;;8.15;5.90;;;25.50;55.10;;;;;;4199600;28;20056;-49
2021/08/25 03:06:08;;;;;;;8.88;6.05;;;25.40;55.00;;;;;;4199435;28;20053;-47
2021/08/25 03:08:10;;;;;;;7.90;5.63;;;25.40;55.00;;;;;;4199442;28;20049;-49
2021/08/25 03:10:12;;;;;;;10.68;5.80;;;25.40;55.00;;;;;;4199315;28;20076;-48
2021/08/25 03:12:14;;;;;;;8.85;5.43;;;25.50;55.00;;;;;;4199423;28;20045;-47
2021/08/25 03:14:16;;;;;;;6.25;5.18;;;25.40;55.00;;;;;;4199557;28;20045;-49
2021/08/25 03:16:18;;;;;;;8.35;5.50;;;25.40;55.10;;;;;;4199344;28;20044;-47
2021/08/25 03:18:20;;;;;;;7.90;5.50;;;25.40;55.00;;;;;;4199023;28;20057;-48
2021/08/25 03:20:22;;;;;;;8.68;5.15;;;25.40;55.10;;;;;;4199296;28;20051;-52
2021/08/25 03:22:25;;;;;;;5.50;5.00;;;25.40;55.10;;;;;;4199312;28;20045;-48
2021/08/25 03:24:27;;;;;;;6.63;4.63;;;25.40;55.10;;;;;;4199468;28;20075;-48
2021/08/25 03:26:28;;;;;;;7.40;5.90;;;25.40;55.20;;;;;;4199332;28;20048;-52
2021/08/25 03:28:30;;;;;;;6.60;5.25;;;25.40;55.10;;;;;;4199126;28;20045;-51
2021/08/25 03:30:32;;;;;;;6.80;4.95;;;25.40;55.20;;;;;;4198234;28;20045;-48
2021/08/25 03:32:34;;;;;;;5.63;5.03;;;25.40;55.10;;;;;;4199097;28;20075;-47
2021/08/25 03:34:36;;;;;;;6.35;5.18;;;25.40;55.10;;;;;;4199283;28;20134;-49
2021/08/25 03:36:38;;;;;;;6.43;5.10;;;25.30;55.20;;;;;;4199100;28;20104;-51
2021/08/25 03:38:40;;;;;;;6.55;4.97;;;25.30;55.20;;;;;;4199002;28;20045;-46
2021/08/25 03:40:42;;;;;;;5.18;4.40;;;25.30;55.20;;;;;;4198919;28;20059;-46
2021/08/25 03:42:44;;;;;;;4.45;4.05;;;25.30;55.10;;;;;;4198923;28;20051;-46
2021/08/25 03:44:46;;;;;;;6.93;4.80;;;25.40;55.10;;;;;;4198999;28;20052;-46
2021/08/25 03:46:48;;;;;;;5.97;4.45;;;25.30;55.10;;;;;;4199021;28;20122;-46
2021/08/25 03:48:50;;;;;;;6.88;5.03;;;25.40;55.10;;;;;;4198829;28;20104;-47
2021/08/25 03:50:52;;;;;;;6.57;5.03;;;25.30;55.10;;;;;;4198808;28;20048;-47
2021/08/25 03:52:54;;;;;;;7.03;5.22;;;25.30;55.20;;;;;;4198816;28;20045;-50
2021/08/25 03:54:56;;;;;;;7.22;5.28;;;25.30;55.20;;;;;;4198712;28;20045;-46
2021/08/25 03:56:58;;;;;;;7.03;4.57;;;25.30;55.20;;;;;;4198827;28;20077;-47
2021/08/25 03:59:01;;;;;;;9.32;5.50;;;25.30;55.20;;;;;;4198650;28;20071;-48
2021/08/25 04:01:03;;;;;;;8.70;5.20;;;25.30;55.20;;;;;;4198540;28;20049;-46
2021/08/25 04:03:05;;;;;;;9.02;5.22;;;25.30;55.20;;;;;;4198534;28;20048;-50
2021/08/25 04:05:08;;;;;;;9.30;5.00;;;25.30;55.20;;;;;;4198497;28;20112;-49
2021/08/25 04:07:10;;;;;;;10.18;6.07;;;25.30;55.20;;;;;;4198709;28;20049;-47
2021/08/25 04:09:12;;;;;;;7.30;5.72;;;25.30;55.20;;;;;;4198693;28;20045;-49
2021/08/25 04:11:18;;;;;;;10.07;5.75;;;25.30;55.30;;;;;;4198419;28;20073;-51
2021/08/25 04:13:20;;;;;;;7.50;5.43;;;25.30;55.30;;;;;;4198516;28;20079;-50
2021/08/25 04:15:22;;;;;;;11.82;6.18;;;25.30;55.30;;;;;;4198543;28;20041;-47
2021/08/25 04:17:24;;;;;;;9.43;5.80;;;25.30;55.30;;;;;;4198468;28;20075;-51
2021/08/25 04:19:26;;;;;;;12.30;6.68;;;25.30;55.40;;;;;;4198248;28;20049;-50
2021/08/25 04:21:28;;;;;;;7.05;5.28;;;25.30;55.20;;;;;;4198654;28;20049;-49
2021/08/25 04:23:30;;;;;;;9.77;5.78;;;25.30;55.40;;;;;;4198494;28;20420;-48
2021/08/25 04:25:32;;;;;;;7.47;6.57;;;25.30;55.40;;;;;;4198353;28;20055;-50
2021/08/25 04:27:34;;;;;;;10.48;6.90;;;25.20;55.40;;;;;;4197915;28;20109;-49
2021/08/25 04:29:36;;;;;;;9.27;6.70;;;25.30;55.40;;;;;;4198319;28;20055;-53
2021/08/25 04:31:38;;;;;;;11.10;7.47;;;25.30;55.40;;;;;;4198458;28;20049;-51
2021/08/25 04:33:40;;;;;;;11.18;7.47;;;25.30;55.40;;;;;;4198429;28;20045;-49
2021/08/25 04:35:42;;;;;;;9.70;7.45;;;25.30;55.50;;;;;;4198231;28;20045;-53
2021/08/25 04:37:44;;;;;;;11.65;8.30;;;25.30;55.40;;;;;;4198242;28;20079;-49
2021/08/25 04:39:46;;;;;;;10.63;7.50;;;25.30;55.50;;;;;;4198237;28;20045;-48
2021/08/25 04:41:48;;;;;;;13.15;7.38;;;25.30;55.40;;;;;;4198507;28;20049;-51
2021/08/25 04:43:50;;;;;;;10.98;7.20;;;25.30;55.50;;;;;;4198465;28;20069;-53
2021/08/25 04:45:52;;;;;;;9.77;6.10;;;25.30;55.50;;;;;;4198283;28;20112;-50
2021/08/25 04:47:54;;;;;;;12.52;6.47;;;25.30;55.50;;;;;;4198267;28;20049;-52
2021/08/25 04:49:56;;;;;;;7.68;6.57;;;25.30;55.60;;;;;;4198207;28;20057;-49
2021/08/25 04:51:58;;;;;;;7.13;5.70;;;25.30;55.70;;;;;;4198204;28;20057;-48
2021/08/25 04:54:00;;;;;;;7.45;6.65;;;25.30;55.70;;;;;;4198241;28;20088;-49
2021/08/25 04:56:02;;;;;;;9.15;6.15;;;25.30;55.70;;;;;;4198191;28;20041;-50
2021/08/25 04:58:04;;;;;;;9.20;6.97;;;25.30;55.80;;;;;;4198048;28;20059;-48
2021/08/25 05:00:07;;;;;;;8.68;6.13;;;25.20;55.90;;;;;;4198141;28;20051;-47
2021/08/25 05:02:09;;;;;;;14.05;7.20;;;25.20;55.90;;;;;;4198090;28;20049;-51
2021/08/25 05:04:11;;;;;;;8.13;6.65;;;25.20;55.90;;;;;;4198254;28;20075;-49
2021/08/25 05:06:13;;;;;;;6.45;5.47;;;25.30;55.80;;;;;;4198105;28;20049;-50
2021/08/25 05:08:15;;;;;;;8.63;5.53;;;25.20;55.90;;;;;;4197968;28;20057;-49
2021/08/25 05:10:18;;;;;;;8.35;5.82;;;25.20;55.90;;;;;;4198069;28;20075;-49
2021/08/25 05:12:20;;;;;;;9.35;6.28;;;25.20;56.00;;;;;;4195982;28;20056;-51
2021/08/25 05:14:23;;;;;;;8.60;6.32;;;25.20;56.00;;;;;;4196941;28;20045;-51
2021/08/25 05:16:25;;;;;;;10.88;7.15;;;25.20;56.00;;;;;;4198165;28;20049;-51
2021/08/25 05:18:27;;;;;;;13.48;8.80;;;25.20;56.00;;;;;;4197003;28;20049;-48
2021/08/25 05:20:29;;;;;;;14.82;8.25;;;25.20;56.10;;;;;;4197845;28;20048;-49
2021/08/25 05:22:31;;;;;;;9.88;7.05;;;25.20;56.20;;;;;;4197662;28;20080;-51
2021/08/25 05:24:34;;;;;;;12.25;6.13;;;25.20;56.10;;;;;;4197461;28;20053;-47
2021/08/25 05:26:36;;;;;;;11.77;6.57;;;25.20;56.20;;;;;;4198053;28;20049;-47
2021/08/25 05:28:38;;;;;;;8.73;6.03;;;25.20;56.20;;;;;;4197683;28;20052;-47
2021/08/25 05:30:40;;;;;;;8.07;5.95;;;25.20;56.20;;;;;;4197779;28;20103;-51
2021/08/25 05:32:42;;;;;;;12.02;6.22;;;25.20;56.30;;;;;;4197653;28;20045;-50
2021/08/25 05:34:44;;;;;;;8.50;5.43;;;25.20;56.30;;;;;;4197879;28;20045;-48
2021/08/25 05:36:46;;;;;;;8.43;6.45;;;25.20;56.30;;;;;;4197879;28;20049;-51
2021/08/25 05:38:48;;;;;;;11.20;5.75;;;25.20;56.40;;;;;;4198494;28;20048;-52
2021/08/25 05:40:50;;;;;;;8.18;5.82;;;25.20;56.40;;;;;;4200887;28;20067;-47
2021/08/25 05:42:52;;;;;;;7.13;6.07;;;25.20;56.50;;;;;;4200820;28;20083;-52
2021/08/25 05:44:54;;;;;;;7.35;5.80;;;25.20;56.50;;;;;;4200677;28;20520;-48
2021/08/25 05:46:57;;;;;;;6.22;5.20;;;25.20;56.50;;;;;;4200704;28;20056;-52
2021/08/25 05:49:00;;;;;;;8.48;6.00;;;25.30;56.50;;;;;;4200793;28;20053;-53
2021/08/25 05:51:02;;;;;;;6.53;5.53;;;25.30;56.50;;;;;;4200849;28;20067;-49
2021/08/25 05:53:04;;;;;;;9.00;5.68;;;25.30;56.60;;;;;;4200595;28;20049;-51
2021/08/25 05:55:07;;;;;;;6.40;5.15;;;25.30;56.60;;;;;;4200572;28;20070;-53
2021/08/25 05:57:09;;;;;;;6.55;5.40;;;25.30;56.70;;;;;;4200619;28;20186;-54
2021/08/25 05:59:11;;;;;;;10.23;6.22;;;25.30;56.70;;;;;;4200540;28;20045;-48
2021/08/25 06:01:16;;;;;;;6.30;5.57;;;25.30;56.90;;;;;;4200615;28;20059;-51
2021/08/25 06:03:18;;;;;;;8.02;5.63;;;25.30;56.90;;;;;;4200568;28;20063;-54
2021/08/25 06:05:21;;;;;;;6.47;5.10;;;25.30;57.10;;;;;;4199484;28;20041;-53
2021/08/25 06:07:23;;;;;;;9.30;5.82;;;25.30;56.90;;;;;;4200442;28;20104;-54
2021/08/25 06:09:25;;;;;;;10.15;6.03;;;25.30;57.10;;;;;;4200352;28;20081;-54
2021/08/25 06:11:27;;;;;;;7.97;5.95;;;25.30;57.10;;;;;;4200104;28;20051;-54
2021/08/25 06:13:29;;;;;;;6.72;5.07;;;25.30;57.10;;;;;;4200428;28;20497;-54
2021/08/25 06:15:31;;;;;;;8.35;6.05;;;25.30;57.10;;;;;;4200371;28;20047;-52
2021/08/25 06:17:33;;;;;;;12.15;5.85;;;25.30;57.20;;;;;;4200210;28;20045;-53
2021/08/25 06:19:35;;;;;;;7.38;5.32;;;25.40;57.20;;;;;;4199907;28;20053;-51
2021/08/25 06:21:37;;;;;;;9.52;4.72;;;25.40;57.20;;;;;;4200310;28;20117;-51
2021/08/25 06:23:39;;;;;;;8.52;5.28;;;25.30;57.50;;;;;;4200354;28;20048;-50
2021/08/25 06:25:41;;;;;;;13.75;5.80;;;25.40;57.60;;;;;;4200366;28;20056;-52
2021/08/25 06:27:43;;;;;;;11.02;5.88;;;25.40;57.80;;;;;;4200116;28;20056;-51
2021/08/25 06:29:45;;;;;;;7.10;5.82;;;25.40;57.60;;;;;;4200195;28;20048;-52
2021/08/25 06:31:47;;;;;;;7.10;5.95;;;25.40;57.70;;;;;;4200008;28;20116;-54
2021/08/25 06:33:49;;;;;;;9.25;6.30;;;25.40;57.70;;;;;;4200060;28;20045;-53
2021/08/25 06:35:51;;;;;;;10.55;5.63;;;25.40;57.50;;;;;;4200164;28;20051;-48
2021/08/25 06:37:53;;;;;;;7.05;6.22;;;25.40;58.00;;;;;;4198993;28;20048;-49
2021/08/25 06:39:55;;;;;;;7.32;5.25;;;25.40;57.80;;;;;;4199890;28;20045;-48
2021/08/25 06:41:57;;;;;;;6.95;5.82;;;25.40;57.80;;;;;;4199902;28;20049;-50
2021/08/25 06:43:59;;;;;;;7.28;5.43;;;25.40;57.70;;;;;;4199504;28;20053;-50
2021/08/25 06:46:02;;;;;;;5.88;4.70;;;25.40;57.50;;;;;;4199980;28;20071;-52
2021/08/25 06:48:04;;;;;;;6.80;4.65;;;25.40;57.70;;;;;;4200016;28;20083;-51
2021/08/25 06:50:07;;;;;;;6.00;5.40;;;25.40;57.70;;;;;;4199506;28;20052;-54
2021/08/25 06:52:09;;;;;;;8.13;4.60;;;25.40;57.60;;;;;;4199689;28;20049;-54
2021/08/25 06:54:11;;;;;;;7.32;4.90;;;25.40;57.70;;;;;;4199864;28;20531;-49
2021/08/25 06:56:13;;;;;;;4.43;3.40;;;25.40;57.60;;;;;;4199707;28;20049;-52
2021/08/25 06:58:15;;;;;;;5.47;4.65;;;25.40;57.70;;;;;;4199804;28;20079;-50
2021/08/25 07:00:18;;;;;;;5.25;4.43;;;25.40;57.70;;;;;;4199612;28;20052;-48
2021/08/25 07:02:20;;;;;;;4.30;3.30;;;25.40;57.80;;;;;;4199539;28;20104;-51
2021/08/25 07:04:22;;;;;;;3.60;3.30;;;25.40;57.80;;;;;;4199485;28;20051;-49
2021/08/25 07:06:24;;;;;;;3.90;3.60;;;25.40;57.80;;;;;;4199429;28;20049;-50
2021/08/25 07:08:26;;;;;;;3.17;2.88;;;25.40;57.60;;;;;;4199555;28;20059;-47
2021/08/25 07:10:28;;;;;;;4.70;2.80;;;25.40;57.80;;;;;;4199641;28;20056;-48
2021/08/25 07:12:30;;;;;;;2.72;2.30;;;25.40;57.80;;;;;;4199319;28;20106;-48
2021/08/25 07:14:33;;;;;;;2.67;2.47;;;25.40;57.80;;;;;;4199267;28;20051;-49
2021/08/25 07:16:35;;;;;;;3.10;2.20;;;25.50;58.00;;;;;;4199332;28;20490;-47
2021/08/25 07:18:37;;;;;;;2.72;2.08;;;25.50;58.10;;;;;;4199100;28;20120;-50
2021/08/25 07:20:39;;;;;;;2.40;2.20;;;25.50;57.90;;;;;;4198570;28;20049;-51
2021/08/25 07:22:42;;;;;;;1.73;1.60;;;25.50;58.00;;;;;;4199153;28;20076;-49
2021/08/25 07:24:44;;;;;;;3.40;2.38;;;25.50;58.00;;;;;;4199223;28;20088;-48
2021/08/25 07:26:46;;;;;;;2.83;2.58;;;25.50;58.10;;;;;;4199168;28;20075;-50
2021/08/25 07:28:48;;;;;;;2.47;2.05;;;25.50;58.00;;;;;;4199209;28;20049;-50
2021/08/25 07:30:50;;;;;;;2.65;2.30;;;25.50;58.10;;;;;;4199225;28;20112;-49
2021/08/25 07:32:52;;;;;;;2.50;2.00;;;25.60;58.10;;;;;;4199109;28;20075;-45
2021/08/25 07:34:54;;;;;;;3.75;1.88;;;25.50;58.20;;;;;;4198940;28;20041;-48
2021/08/25 07:36:57;;;;;;;1.92;1.80;;;25.50;58.30;;;;;;4198111;28;20100;-53
2021/08/25 07:38:59;;;;;;;5.40;1.70;;;25.50;58.30;;;;;;4199056;28;20073;-49
2021/08/25 07:41:02;;;;;;;1.65;1.55;;;25.60;58.20;;;;;;4198155;28;20045;-52
2021/08/25 07:43:04;;;;;;;5.15;3.15;;;25.60;58.30;;;;;;4199085;28;20064;-50
2021/08/25 07:45:06;;;;;;;8.05;6.75;;;25.50;59.10;;;;;;4199002;28;20053;-48
2021/08/25 07:47:08;;;;;;;5.28;2.83;;;25.40;59.60;;;;;;4198952;28;20049;-52
2021/08/25 07:49:10;;;;;;;3.95;2.13;;;25.40;59.20;;;;;;4198808;28;20053;-49
2021/08/25 07:51:12;;;;;;;6.18;4.07;;;25.40;59.00;;;;;;4197403;28;20044;-47
2021/08/25 07:53:15;;;;;;;7.63;4.97;;;25.40;59.20;;;;;;4198787;28;20108;-51
2021/08/25 07:55:17;;;;;;;10.32;9.30;;;25.40;59.60;;;;;;4198924;28;20068;-46
2021/08/25 07:57:18;;;;;;;31.70;28.40;;;25.30;60.80;;;;;;4198711;28;20040;-48
2021/08/25 07:59:20;;;;;;;50.67;25.05;;;25.30;61.50;;;;;;4198121;28;20064;-56
2021/08/25 08:01:23;;;;;;;15.98;12.55;;;25.20;62.30;;;;;;4197257;28;20045;-57
2021/08/25 08:03:26;;;;;;;14.93;11.27;;;25.30;61.30;;;;;;4185763;28;20045;-58
2021/08/25 08:05:29;;;;;;;20.65;14.80;;;25.40;60.30;;;;;;4195814;28;20368;-46
2021/08/25 08:07:31;;;;;;;13.93;12.45;;;25.40;60.40;;;;;;4198788;28;20052;-47
2021/08/25 08:09:33;;;;;;;18.15;12.38;;;25.50;60.10;;;;;;4196851;28;20053;-49
2021/08/25 08:11:35;;;;;;;22.08;13.15;;;25.40;60.70;;;;;;4189291;28;20108;-47
2021/08/25 08:13:37;;;;;;;18.48;13.13;;;25.40;61.20;;;;;;4192843;28;20045;-50
2021/08/25 08:15:39;;;;;;;20.05;11.55;;;25.40;60.90;;;;;;4186784;28;20072;-52
2021/08/25 08:17:46;;;;;;;18.20;11.55;;;25.40;60.00;;;;;;4198357;28;20041;-46
2021/08/25 08:19:49;;;;;;;18.70;10.30;;;25.50;60.00;;;;;;4194451;28;20057;-48
2021/08/25 08:21:53;;;;;;;;;;;25.50;59.50;;;;;;4192698;28;20059;-45
2021/08/25 08:23:56;;;;;;;14.70;10.13;;;25.60;59.50;;;;;;4197809;28;19951;-45
2021/08/25 08:25:59;;;;;;;12.88;10.02;;;25.60;59.20;;;;;;4198081;28;20056;-50
2021/08/25 08:28:01;;;;;;;13.15;9.60;;;25.70;59.10;;;;;;4197422;28;20049;-45
2021/08/25 08:30:04;;;;;;;14.75;10.20;;;25.70;58.90;;;;;;4189921;28;20071;-44
2021/08/25 08:32:10;;;;;;;19.48;10.30;;;25.70;58.90;;;;;;4185275;28;20118;-39
2021/08/25 08:34:12;;;;;;;10.65;9.55;;;25.70;58.90;;;;;;4186593;28;20052;-42
2021/08/25 08:36:14;;;;;;;11.68;9.18;;;25.70;58.80;;;;;;4192102;28;20053;-39
2021/08/25 08:38:16;;;;;;;14.52;11.93;;;25.70;58.80;;;;;;4193668;28;20053;-41
2021/08/25 08:40:18;;;;;;;13.68;10.32;;;25.70;59.10;;;;;;4189039;28;20049;-41
2021/08/25 08:42:32;;;;;;;14.15;9.50;;;25.70;58.90;;;;;;4196838;28;20053;-43
2021/08/25 08:44:36;;;;;;;13.85;11.10;;;25.70;58.80;;;;;;4197464;28;20060;-45
2021/08/25 08:46:42;;;;;;;19.17;14.73;;;25.70;58.90;;;;;;4197509;28;20079;-47
2021/08/25 08:48:45;;;;;;;17.70;12.43;;;25.70;59.20;;;;;;4181500;28;20322;-48
2021/08/25 08:50:47;;;;;;;19.40;12.23;;;25.70;59.20;;;;;;4190149;28;20079;-53
2021/08/25 08:52:50;;;;;;;15.60;13.35;;;25.80;59.00;;;;;;4191849;28;20049;-50
2021/08/25 08:54:54;;;;;;;20.67;16.33;;;25.70;59.20;;;;;;4182407;28;20046;-49
2021/08/25 08:56:56;;;;;;;19.98;17.85;;;25.70;59.50;;;;;;4197622;28;20092;-48
2021/08/25 08:59:00;;;;;;;22.42;16.55;;;25.70;59.80;;;;;;4196105;28;20041;-47
2021/08/25 09:01:02;;;;;;;24.02;16.25;;;25.60;59.70;;;;;;4187023;28;20123;-52
2021/08/25 09:03:20;;;;;;;24.50;18.23;;;25.60;59.70;;;;;;4197925;28;20421;-52
2021/08/25 09:05:22;;;;;;;18.75;14.63;;;25.60;59.70;;;;;;4196869;28;20076;-49
2021/08/25 09:07:26;;;;;;;20.95;15.07;;;25.60;59.50;;;;;;4197258;28;20071;-47
2021/08/25 09:09:48;;;;;;;18.02;13.02;;;25.60;59.60;;;;;;4187188;28;20061;-48
2021/08/25 09:11:52;;;;;;;16.63;12.52;;;25.60;59.30;;;;;;4198037;28;20132;-50
2021/08/25 09:13:54;;;;;;;13.30;11.85;;;25.60;59.70;;;;;;4201696;28;20737;-48
2021/08/25 09:15:56;;;;;;;13.68;11.95;;;25.60;59.40;;;;;;4200862;28;20049;-45
2021/08/25 09:17:59;;;;;;;12.30;10.88;;;25.60;59.20;;;;;;4198664;28;20056;-45
2021/08/25 09:20:11;;;;;;;12.85;11.18;;;25.70;59.00;;;;;;4201662;28;20067;-48
2021/08/25 09:22:19;;;;;;;16.48;12.85;;;25.70;59.00;;;;;;4213370;28;20055;-52
2021/08/25 09:24:24;;;;;;;23.80;11.63;;;25.60;59.50;;;;;;4209319;28;20041;-55
2021/08/25 09:26:26;;;;;;;;;;;25.50;59.10;;;;;;4193888;28;20057;-46
2021/08/25 09:28:36;;;;;;;15.13;12.25;;;25.60;59.30;;;;;;4202000;28;19920;-46
2021/08/25 09:30:50;;;;;;;25.30;10.80;;;25.60;59.30;;;;;;4201752;28;20045;-45
2021/08/25 09:32:53;;;;;;;18.95;10.60;;;25.60;59.10;;;;;;4201088;28;20060;-44
2021/08/25 09:34:57;;;;;;;13.82;10.45;;;25.60;59.10;;;;;;4199588;28;20045;-46
2021/08/25 09:37:11;;;;;;;15.75;10.80;;;25.50;59.10;;;;;;4201537;28;20100;-42
2021/08/25 09:39:21;;;;;;;12.77;10.05;;;25.60;59.50;;;;;;4201986;28;20052;-47
2021/08/25 09:41:23;;;;;;;21.90;10.48;;;25.60;59.10;;;;;;4201068;28;20074;-55
2021/08/25 09:43:35;;;;;;;13.27;9.95;;;25.60;59.20;;;;;;4200283;28;20056;-53
2021/08/25 09:45:37;;;;;;;16.83;10.85;;;25.70;58.90;;;;;;4203049;28;20048;-50
2021/08/25 09:47:47;;;;;;;14.40;10.23;;;25.70;58.60;;;;;;4211228;28;20048;-51
2021/08/25 09:50:06;;;;;;;14.63;9.40;;;25.70;58.50;;;;;;4200327;28;20055;-43
2021/08/25 09:52:34;;;;;;;12.73;9.45;;;25.70;58.30;;;;;;4200781;28;20067;-46
2021/08/25 09:54:36;;;;;;;14.82;9.80;;;25.70;58.20;;;;;;4203126;28;20104;-51
2021/08/25 09:56:39;;;;;;;20.63;10.73;;;25.80;58.10;;;;;;4199471;28;20049;-52
2021/08/25 09:58:42;;;;;;;18.37;11.60;;;25.70;57.80;;;;;;4202431;28;20045;-55
2021/08/25 10:00:44;;;;;;;15.95;11.18;;;25.80;57.40;;;;;;4191688;28;20303;-46
2021/08/25 10:02:48;;;;;;;21.05;12.10;;;25.80;58.30;;;;;;4200486;28;20049;-53
2021/08/25 10:04:54;;;;;;;16.33;11.82;;;25.70;58.60;;;;;;4200845;28;20052;-55
2021/08/25 10:06:56;;;;;;;21.42;11.52;;;25.80;57.80;;;;;;4200579;28;20080;-43
2021/08/25 10:09:04;;;;;;;20.52;11.43;;;25.80;58.00;;;;;;4201362;28;20057;-45
2021/08/25 10:11:08;;;;;;;17.65;10.93;;;25.70;58.10;;;;;;4200739;28;20053;-46
2021/08/25 10:13:10;;;;;;;19.73;11.63;;;25.70;58.10;;;;;;4200492;28;20075;-46
2021/08/25 10:15:30;;;;;;;19.25;11.95;;;25.60;58.30;;;;;;4201252;28;20060;-44
2021/08/25 10:17:41;;;;;;;18.27;12.32;;;25.60;58.20;;;;;;4201189;28;20045;-46
2021/08/25 10:19:43;;;;;;;13.88;10.45;;;25.50;58.60;;;;;;4201014;28;20067;-47
2021/08/25 10:21:45;;;;;;;30.70;14.65;;;25.40;57.90;;;;;;4200221;28;20072;-51
2021/08/25 10:23:57;;;;;;;20.48;14.75;;;25.50;58.40;;;;;;4199155;28;20075;-51
2021/08/25 10:26:08;;;;;;;23.42;15.32;;;25.50;58.00;;;;;;4182595;28;20113;-48
2021/08/25 10:28:10;;;;;;;18.90;12.93;;;25.50;57.90;;;;;;4183372;28;20083;-49
2021/08/25 10:30:14;;;;;;;22.88;12.38;;;25.50;56.20;;;;;;4183687;28;20071;-48
2021/08/25 10:32:17;;;;;;;18.40;12.32;;;25.60;56.60;;;;;;4183707;28;20117;-49
2021/08/25 10:34:38;;;;;;;20.48;12.07;;;25.60;56.80;;;;;;4191472;28;20049;-49
2021/08/25 10:36:40;;;;;;;18.52;12.68;;;25.70;56.90;;;;;;4200325;28;20045;-50